createdAt,value
2017-08-25T00:01:02.499Z,1.97
2017-08-25T00:03:30.030Z,2.15
2017-08-25T00:05:57.490Z,2.10
2017-08-25T00:08:24.981Z,1.67
2017-08-25T00:10:53.288Z,2.27
2017-08-25T00:13:20.777Z,2.20
2017-08-25T00:15:48.240Z,2.53
2017-08-25T00:18:15.721Z,2.20
2017-08-25T00:20:43.181Z,2.40
2017-08-25T00:23:10.645Z,2.36
2017-08-25T00:25:38.133Z,2.20
2017-08-25T00:28:05.577Z,2.00
2017-08-25T00:30:33.068Z,2.20
2017-08-25T00:33:00.527Z,2.20
2017-08-25T00:35:28.035Z,2.30
2017-08-25T00:37:55.487Z,2.27
2017-08-25T00:40:22.981Z,2.00
2017-08-25T00:42:50.516Z,2.10
2017-08-25T00:45:18.334Z,2.10
2017-08-25T00:47:45.799Z,2.13
2017-08-25T00:50:13.272Z,2.40
2017-08-25T00:52:40.783Z,2.37
2017-08-25T00:55:08.265Z,2.50
2017-08-25T00:57:35.751Z,2.20
2017-08-25T01:00:03.221Z,2.20
2017-08-25T01:02:30.722Z,2.73
2017-08-25T01:04:58.197Z,2.10
2017-08-25T01:07:25.802Z,2.60
2017-08-25T01:09:53.298Z,2.13
2017-08-25T01:12:20.790Z,2.20
2017-08-25T01:14:48.255Z,2.10
2017-08-25T01:17:15.733Z,1.92
2017-08-25T01:19:43.190Z,2.43
2017-08-25T01:22:10.696Z,2.67
2017-08-25T01:24:38.183Z,2.17
2017-08-25T01:27:06.123Z,2.40
2017-08-25T01:29:33.657Z,2.03
2017-08-25T01:32:01.102Z,2.40
2017-08-25T01:34:28.595Z,2.33
2017-08-25T01:36:56.054Z,2.33
2017-08-25T01:39:23.529Z,2.73
2017-08-25T01:41:51.009Z,2.27
2017-08-25T01:44:18.489Z,2.10
2017-08-25T01:46:45.951Z,2.20
2017-08-25T01:49:13.442Z,2.40
2017-08-25T01:51:40.904Z,2.40
2017-08-25T01:54:08.377Z,2.33
2017-08-25T01:56:35.891Z,2.27
2017-08-25T01:59:03.365Z,2.10
2017-08-25T02:01:30.873Z,2.63
2017-08-25T02:03:58.344Z,2.40
2017-08-25T02:06:25.845Z,2.40
2017-08-25T02:08:53.293Z,2.30
2017-08-25T02:11:20.759Z,2.27
2017-08-25T02:13:48.258Z,2.27
2017-08-25T02:16:15.772Z,2.37
2017-08-25T02:18:44.001Z,2.40
2017-08-25T02:21:11.517Z,2.40
2017-08-25T02:23:38.965Z,2.40
2017-08-25T02:26:06.448Z,2.75
2017-08-25T02:28:33.941Z,2.10
2017-08-25T02:31:01.430Z,2.17
2017-08-25T02:33:28.927Z,2.30
2017-08-25T02:35:56.862Z,2.60
2017-08-25T02:38:24.360Z,2.33
2017-08-25T02:40:51.823Z,2.30
2017-08-25T02:43:19.310Z,2.60
2017-08-25T02:45:46.787Z,2.80
2017-08-25T02:48:14.273Z,2.47
2017-08-25T02:50:41.771Z,2.40
2017-08-25T02:53:09.254Z,2.40
2017-08-25T02:55:36.759Z,2.00
2017-08-25T02:58:04.222Z,2.60
2017-08-25T03:00:31.723Z,2.30
2017-08-25T03:02:59.169Z,2.40
2017-08-25T03:05:26.650Z,2.77
2017-08-25T03:07:54.126Z,2.30
2017-08-25T03:10:21.624Z,2.67
2017-08-25T03:12:49.117Z,2.43
2017-08-25T03:15:16.602Z,2.60
2017-08-25T03:17:44.203Z,2.30
2017-08-25T03:20:11.661Z,2.37
2017-08-25T03:22:39.117Z,2.10
2017-08-25T03:25:06.925Z,2.60
2017-08-25T03:27:34.389Z,2.50
2017-08-25T03:30:01.857Z,2.83
2017-08-25T03:32:29.347Z,2.67
2017-08-25T03:34:56.805Z,3.10
2017-08-25T03:37:24.295Z,2.75
2017-08-25T03:39:51.786Z,2.60
2017-08-25T03:42:19.271Z,2.73
2017-08-25T03:44:47.541Z,2.43
2017-08-25T03:47:15.056Z,2.70
2017-08-25T03:49:42.561Z,2.80
2017-08-25T03:52:10.048Z,2.37
2017-08-25T03:54:37.525Z,3.00
2017-08-25T03:57:05.882Z,2.42
2017-08-25T03:59:33.393Z,2.43
2017-08-25T04:02:00.846Z,2.33
2017-08-25T04:04:28.330Z,2.70
2017-08-25T04:06:55.835Z,2.43
2017-08-25T04:09:23.317Z,2.73
2017-08-25T04:11:50.839Z,2.47
2017-08-25T04:14:18.439Z,2.43
2017-08-25T04:16:45.903Z,2.80
2017-08-25T04:19:13.386Z,2.33
2017-08-25T04:21:40.869Z,3.30
2017-08-25T04:24:08.318Z,2.90
2017-08-25T04:26:36.783Z,3.70
2017-08-25T04:29:04.313Z,3.57
2017-08-25T04:31:31.850Z,3.22
2017-08-25T04:33:59.326Z,3.53
2017-08-25T04:36:26.816Z,2.83
2017-08-25T04:38:54.299Z,3.70
2017-08-25T04:41:21.806Z,4.40
2017-08-25T04:43:49.269Z,4.30
2017-08-25T04:46:16.759Z,3.47
2017-08-25T04:48:44.245Z,2.80
2017-08-25T04:51:11.738Z,2.90
2017-08-25T04:53:39.192Z,2.80
2017-08-25T04:56:06.705Z,2.63
2017-08-25T04:58:34.199Z,2.87
2017-08-25T05:01:01.679Z,2.80
2017-08-25T05:03:29.179Z,2.97
2017-08-25T05:05:56.727Z,3.00
2017-08-25T05:08:24.209Z,3.80
2017-08-25T05:10:52.379Z,3.10
2017-08-25T05:13:19.861Z,3.50
2017-08-25T05:15:47.358Z,2.57
2017-08-25T05:18:15.043Z,3.60
2017-08-25T05:20:43.490Z,2.80
2017-08-25T05:23:11.040Z,3.37
2017-08-25T05:25:38.539Z,2.93
2017-08-25T05:28:06.049Z,2.67
2017-08-25T05:30:33.562Z,2.90
2017-08-25T05:33:01.013Z,3.30
2017-08-25T05:35:28.506Z,3.00
2017-08-25T05:37:55.995Z,4.03
2017-08-25T05:40:23.546Z,3.17
2017-08-25T05:42:51.056Z,2.70
2017-08-25T05:45:18.543Z,3.83
2017-08-25T05:47:46.053Z,3.27
2017-08-25T05:50:13.612Z,2.87
2017-08-25T05:52:41.184Z,3.10
2017-08-25T05:55:08.681Z,2.95
2017-08-25T05:57:36.361Z,3.10
2017-08-25T06:00:03.906Z,3.13
2017-08-25T06:02:31.409Z,3.33
2017-08-25T06:04:58.976Z,3.70
2017-08-25T06:07:26.464Z,3.40
2017-08-25T06:09:54.205Z,3.30
2017-08-25T06:12:21.859Z,2.95
2017-08-25T06:14:49.310Z,3.33
2017-08-25T06:17:16.773Z,3.08
2017-08-25T06:19:44.388Z,3.90
2017-08-25T06:22:11.869Z,3.67
2017-08-25T06:27:13.073Z,3.80
2017-08-25T06:29:40.613Z,3.70
2017-08-25T06:32:08.098Z,3.80
2017-08-25T06:34:35.588Z,3.70
2017-08-25T06:37:03.048Z,4.00
2017-08-25T06:39:32.062Z,5.90
2017-08-25T06:42:01.574Z,4.00
2017-08-25T06:44:29.079Z,4.30
2017-08-25T06:46:56.665Z,7.43
2017-08-25T06:49:24.128Z,5.60
2017-08-25T06:51:51.713Z,4.43
2017-08-25T06:54:19.184Z,6.07
2017-08-25T06:56:46.663Z,3.90
2017-08-25T06:59:14.185Z,3.90
2017-08-25T07:01:41.669Z,4.33
2017-08-25T07:04:09.163Z,3.40
2017-08-25T07:06:36.642Z,4.20
2017-08-25T07:09:04.375Z,3.67
2017-08-25T07:11:31.876Z,5.10
2017-08-25T07:13:59.330Z,4.47
2017-08-25T07:16:26.827Z,4.63
2017-08-25T07:18:54.318Z,4.10
2017-08-25T07:21:22.385Z,3.90
2017-08-25T07:23:50.582Z,4.63
2017-08-25T07:26:18.088Z,3.97
2017-08-25T07:28:45.578Z,3.80
2017-08-25T07:31:13.353Z,4.10
2017-08-25T07:33:40.819Z,4.80
2017-08-25T07:36:08.349Z,3.50
2017-08-25T07:38:35.834Z,3.30
2017-08-25T07:41:03.336Z,3.67
2017-08-25T07:43:31.140Z,4.00
2017-08-25T07:45:58.634Z,3.13
2017-08-25T07:48:26.138Z,3.50
2017-08-25T07:50:53.689Z,3.03
2017-08-25T07:53:21.201Z,4.07
2017-08-25T07:55:48.676Z,5.57
2017-08-25T07:58:16.158Z,4.95
2017-08-25T08:00:44.062Z,5.07
2017-08-25T08:03:11.586Z,3.90
2017-08-25T08:05:39.067Z,3.07
2017-08-25T08:08:06.573Z,3.23
2017-08-25T08:10:34.765Z,3.80
2017-08-25T08:13:02.349Z,2.50
2017-08-25T08:15:29.809Z,2.50
2017-08-25T08:17:57.257Z,2.20
2017-08-25T08:20:24.766Z,3.37
2017-08-25T08:22:52.237Z,3.07
2017-08-25T08:25:19.725Z,3.00
2017-08-25T08:27:47.204Z,2.77
2017-08-25T08:30:14.705Z,3.12
2017-08-25T08:32:42.180Z,2.57
2017-08-25T08:35:09.670Z,2.60
2017-08-25T08:37:37.149Z,5.60
2017-08-25T08:40:05.125Z,3.05
2017-08-25T08:42:32.620Z,2.97
2017-08-25T08:45:00.113Z,2.97
2017-08-25T08:47:27.599Z,6.30
2017-08-25T08:52:28.832Z,2.67
2017-08-25T08:54:56.286Z,2.60
2017-08-25T08:57:23.782Z,2.67
2017-08-25T08:59:52.150Z,2.83
2017-08-25T09:02:19.634Z,3.05
2017-08-25T09:04:47.149Z,2.90
2017-08-25T09:07:14.695Z,2.90
2017-08-25T09:09:42.178Z,2.77
2017-08-25T09:12:09.661Z,2.75
2017-08-25T09:14:37.471Z,2.87
2017-08-25T09:17:04.997Z,3.33
2017-08-25T09:19:33.006Z,2.60
2017-08-25T09:22:00.481Z,3.70
2017-08-25T09:24:27.996Z,2.80
2017-08-25T09:26:55.492Z,2.73
2017-08-25T09:29:22.981Z,3.00
2017-08-25T09:31:50.565Z,3.50
2017-08-25T09:34:18.048Z,2.62
2017-08-25T09:36:45.515Z,3.70
2017-08-25T09:39:13.003Z,4.70
2017-08-25T09:41:40.512Z,3.30
2017-08-25T09:44:07.965Z,4.43
2017-08-25T09:46:35.459Z,2.80
2017-08-25T09:49:03.984Z,3.43
2017-08-25T09:51:32.381Z,3.20
2017-08-25T09:53:59.932Z,3.40
2017-08-25T09:56:27.492Z,5.57
2017-08-25T09:58:55.931Z,3.00
2017-08-25T10:01:23.446Z,3.93
2017-08-25T10:03:50.920Z,3.20
2017-08-25T10:06:18.426Z,3.67
2017-08-25T10:08:45.906Z,5.17
2017-08-25T10:11:13.450Z,3.30
2017-08-25T10:13:41.004Z,3.50
2017-08-25T10:16:09.462Z,3.60
2017-08-25T10:18:36.969Z,5.00
2017-08-25T10:21:05.515Z,4.36
2017-08-25T10:23:42.732Z,4.37
2017-08-25T10:26:10.247Z,3.80
2017-08-25T10:28:37.728Z,4.03
2017-08-25T10:31:06.086Z,5.18
2017-08-25T10:33:43.585Z,5.27
2017-08-25T10:36:22.958Z,6.00
2017-08-25T10:39:02.150Z,5.60
2017-08-25T10:41:41.344Z,6.70
2017-08-25T10:44:20.814Z,6.37
2017-08-25T10:46:48.388Z,5.60
2017-08-25T10:49:18.291Z,6.47
2017-08-25T10:51:46.552Z,6.40
2017-08-25T10:54:14.024Z,6.07
2017-08-25T10:56:42.778Z,6.40
2017-08-25T10:59:10.659Z,6.50
2017-08-25T11:01:38.198Z,6.10
2017-08-25T11:04:05.667Z,6.40
2017-08-25T11:06:33.156Z,6.17
2017-08-25T11:09:00.655Z,6.27
2017-08-25T11:11:28.729Z,6.77
2017-08-25T11:13:56.217Z,7.03
2017-08-25T11:16:23.703Z,6.80
2017-08-25T11:18:51.251Z,5.90
2017-08-25T11:21:18.748Z,6.90
2017-08-25T11:23:46.275Z,6.90
2017-08-25T11:26:13.765Z,6.57
2017-08-25T11:28:41.277Z,6.10
2017-08-25T11:31:08.811Z,6.17
2017-08-25T11:33:36.310Z,6.60
2017-08-25T11:36:03.781Z,6.70
2017-08-25T11:38:31.276Z,7.65
2017-08-25T11:40:58.735Z,6.60
2017-08-25T11:43:26.303Z,6.83
2017-08-25T11:45:53.822Z,6.47
2017-08-25T11:48:21.387Z,6.32
2017-08-25T11:50:48.904Z,6.60
2017-08-25T11:53:16.434Z,6.40
2017-08-25T11:55:43.953Z,5.47
2017-08-25T11:58:11.481Z,6.17
2017-08-25T12:00:38.980Z,6.40
2017-08-25T12:03:06.446Z,6.90
2017-08-25T12:05:33.970Z,6.40
2017-08-25T12:08:01.455Z,6.53
2017-08-25T12:10:28.933Z,6.50
2017-08-25T12:12:56.417Z,6.10
2017-08-25T12:15:23.887Z,6.83
2017-08-25T12:17:51.417Z,6.60
2017-08-25T12:20:19.183Z,6.18
2017-08-25T12:22:46.695Z,5.83
2017-08-25T12:25:14.150Z,6.07
2017-08-25T12:27:41.655Z,5.80
2017-08-25T12:30:09.440Z,5.82
2017-08-25T12:32:36.950Z,5.97
2017-08-25T12:35:05.013Z,6.10
2017-08-25T12:37:32.491Z,5.40
2017-08-25T12:39:59.989Z,5.83
2017-08-25T12:42:27.486Z,6.20
2017-08-25T12:44:54.999Z,6.80
2017-08-25T12:47:27.440Z,5.60
2017-08-25T12:49:54.938Z,5.67
2017-08-25T12:52:23.054Z,6.00
2017-08-25T12:54:50.664Z,6.30
2017-08-25T12:57:18.196Z,5.03
2017-08-25T12:59:45.664Z,5.70
2017-08-25T13:02:13.157Z,5.60
2017-08-25T13:04:40.790Z,5.70
2017-08-25T13:07:09.275Z,5.60
2017-08-25T13:09:36.726Z,5.93
2017-08-25T13:12:05.030Z,5.57
2017-08-25T13:14:32.542Z,6.10
2017-08-25T13:17:00.115Z,6.10
2017-08-25T13:19:27.614Z,6.17
2017-08-25T13:21:55.107Z,6.30
2017-08-25T13:24:22.587Z,7.45
2017-08-25T13:26:50.188Z,6.20
2017-08-25T13:29:18.433Z,6.12
2017-08-25T13:31:45.896Z,6.43
2017-08-25T13:34:14.186Z,6.93
2017-08-25T13:36:41.734Z,6.70
2017-08-25T13:39:09.657Z,6.07
2017-08-25T13:41:37.145Z,6.03
2017-08-25T13:44:04.658Z,6.45
2017-08-25T13:46:32.190Z,6.50
2017-08-25T13:49:00.424Z,6.07
2017-08-25T13:51:27.900Z,6.50
2017-08-25T13:53:55.407Z,7.13
2017-08-25T13:56:22.880Z,6.57
2017-08-25T13:58:50.373Z,6.33
2017-08-25T14:01:17.842Z,6.43
2017-08-25T14:03:45.376Z,6.90
2017-08-25T14:06:12.849Z,6.18
2017-08-25T14:08:40.391Z,6.23
2017-08-25T14:11:08.703Z,7.10
2017-08-25T14:13:36.179Z,6.70
2017-08-25T14:16:03.705Z,7.00
2017-08-25T14:18:31.890Z,7.00
2017-08-25T14:20:59.415Z,6.40
2017-08-25T14:23:26.934Z,6.60
2017-08-25T14:25:54.437Z,6.63
2017-08-25T14:28:21.911Z,6.20
2017-08-25T14:30:49.414Z,6.90
2017-08-25T14:33:16.954Z,6.00
2017-08-25T14:35:44.436Z,7.30
2017-08-25T14:38:14.178Z,6.73
2017-08-25T14:40:41.639Z,6.87
2017-08-25T14:43:09.985Z,8.70
2017-08-25T14:45:37.447Z,6.50
2017-08-25T14:48:05.802Z,6.85
2017-08-25T14:50:33.266Z,6.50
2017-08-25T14:53:00.894Z,7.53
2017-08-25T14:55:28.880Z,6.93
2017-08-25T14:57:56.369Z,6.50
2017-08-25T15:00:23.881Z,6.90
2017-08-25T15:02:51.353Z,6.70
2017-08-25T15:05:18.850Z,6.82
2017-08-25T15:07:46.341Z,7.40
2017-08-25T15:10:14.094Z,7.90
2017-08-25T15:12:41.594Z,7.57
2017-08-25T15:15:09.074Z,6.55
2017-08-25T15:17:36.607Z,7.47
2017-08-25T15:20:04.691Z,6.90
2017-08-25T15:22:32.157Z,6.60
2017-08-25T15:24:59.659Z,6.47
2017-08-25T15:27:27.163Z,6.40
2017-08-25T15:29:54.655Z,6.57
2017-08-25T15:32:22.161Z,6.07
2017-08-25T15:34:49.792Z,7.47
2017-08-25T15:37:17.867Z,6.65
2017-08-25T15:39:45.427Z,7.43
2017-08-25T15:42:12.965Z,6.85
2017-08-25T15:44:40.419Z,6.00
2017-08-25T15:47:07.915Z,6.60
2017-08-25T15:49:35.402Z,6.70
2017-08-25T15:52:02.858Z,7.10
2017-08-25T15:54:31.283Z,7.10
2017-08-25T15:56:59.165Z,6.53
2017-08-25T15:59:26.667Z,8.03
2017-08-25T16:01:54.146Z,7.40
2017-08-25T16:04:21.646Z,7.20
2017-08-25T16:06:49.134Z,6.37
2017-08-25T16:09:16.709Z,4.23
2017-08-25T16:11:44.241Z,4.40
2017-08-25T16:14:11.735Z,3.33
2017-08-25T16:16:39.241Z,3.00
2017-08-25T16:19:06.737Z,3.40
2017-08-25T16:21:34.208Z,3.50
2017-08-25T16:24:01.688Z,3.43
2017-08-25T16:26:29.357Z,3.00
2017-08-25T16:28:56.847Z,5.20
2017-08-25T16:31:24.382Z,5.70
2017-08-25T16:33:51.842Z,4.70
2017-08-25T16:36:19.384Z,3.00
2017-08-25T16:38:46.914Z,3.37
2017-08-25T16:41:14.404Z,3.50
2017-08-25T16:43:41.882Z,3.30
2017-08-25T16:46:09.401Z,3.33
2017-08-25T16:48:36.878Z,5.37
2017-08-25T16:51:04.350Z,5.17
2017-08-25T16:53:31.854Z,3.37
2017-08-25T16:55:59.338Z,3.17
2017-08-25T16:58:27.094Z,4.40
2017-08-25T17:00:54.544Z,3.80
2017-08-25T17:03:22.041Z,3.33
2017-08-25T17:05:49.498Z,3.20
2017-08-25T17:08:16.966Z,3.50
2017-08-25T17:10:44.461Z,3.87
2017-08-25T17:13:11.951Z,4.20
2017-08-25T17:15:39.439Z,3.50
2017-08-25T17:18:06.921Z,3.83
2017-08-25T17:20:34.419Z,4.43
2017-08-25T17:23:01.873Z,3.60
2017-08-25T17:25:29.411Z,4.13
2017-08-25T17:27:56.862Z,3.70
2017-08-25T17:30:24.351Z,3.50
2017-08-25T17:32:51.854Z,3.77
2017-08-25T17:35:19.333Z,3.47
2017-08-25T17:37:46.818Z,3.37
2017-08-25T17:40:14.273Z,3.37
2017-08-25T17:42:41.753Z,3.30
2017-08-25T17:45:09.222Z,4.03
2017-08-25T17:47:37.086Z,4.00
2017-08-25T17:50:04.541Z,3.50
2017-08-25T17:52:32.005Z,3.10
2017-08-25T17:55:00.310Z,4.60
2017-08-25T17:57:27.827Z,3.43
2017-08-25T17:59:55.315Z,3.40
2017-08-25T18:02:23.322Z,3.78
2017-08-25T18:04:50.815Z,4.40
2017-08-25T18:07:18.282Z,4.07
2017-08-25T18:09:45.811Z,5.27
2017-08-25T18:12:13.319Z,3.53
2017-08-25T18:14:40.794Z,3.67
2017-08-25T18:17:08.280Z,4.50
2017-08-25T18:19:35.766Z,3.50
2017-08-25T18:22:03.270Z,3.50
2017-08-25T18:24:31.095Z,3.33
2017-08-25T18:26:58.606Z,3.97
2017-08-25T18:29:26.063Z,4.50
2017-08-25T18:31:53.568Z,4.40
2017-08-25T18:34:21.062Z,3.55
2017-08-25T18:36:48.553Z,3.50
2017-08-25T18:39:16.117Z,3.50
2017-08-25T18:41:43.596Z,4.30
2017-08-25T18:44:11.273Z,4.78
2017-08-25T18:46:38.744Z,4.00
2017-08-25T18:49:06.218Z,3.80
2017-08-25T18:51:33.703Z,3.60
2017-08-25T18:54:01.189Z,4.23
2017-08-25T18:56:28.645Z,5.00
2017-08-25T18:58:56.133Z,4.17
2017-08-25T19:01:23.641Z,3.73
2017-08-25T19:03:51.095Z,4.03
2017-08-25T19:06:18.589Z,4.10
2017-08-25T19:08:46.056Z,4.80
2017-08-25T19:11:14.407Z,4.05
2017-08-25T19:13:41.924Z,4.63
2017-08-25T19:16:09.401Z,4.95
2017-08-25T19:18:36.895Z,4.80
2017-08-25T19:21:04.386Z,3.83
2017-08-25T19:23:31.903Z,4.30
2017-08-25T19:25:59.358Z,4.00
2017-08-25T19:28:26.988Z,4.37
2017-08-25T19:30:54.467Z,4.22
2017-08-25T19:33:21.939Z,3.80
2017-08-25T19:35:49.458Z,4.60
2017-08-25T19:38:16.967Z,4.37
2017-08-25T19:40:44.474Z,4.17
2017-08-25T19:43:11.963Z,4.22
2017-08-25T19:45:39.478Z,4.33
2017-08-25T19:48:06.962Z,3.97
2017-08-25T19:50:34.444Z,3.97
2017-08-25T19:53:01.933Z,4.60
2017-08-25T19:55:29.442Z,4.30
2017-08-25T19:57:56.946Z,4.43
2017-08-25T20:00:24.404Z,4.00
2017-08-25T20:02:51.912Z,4.27
2017-08-25T20:05:19.381Z,4.45
2017-08-25T20:07:46.995Z,4.60
2017-08-25T20:10:14.504Z,5.60
2017-08-25T20:12:41.991Z,4.90
2017-08-25T20:15:09.504Z,4.50
2017-08-25T20:17:36.961Z,4.57
2017-08-25T20:20:04.446Z,4.67
2017-08-25T20:22:31.930Z,5.20
2017-08-25T20:24:59.416Z,4.20
2017-08-25T20:27:26.895Z,4.30
2017-08-25T20:29:54.395Z,5.33
2017-08-25T20:32:22.237Z,4.10
2017-08-25T20:34:49.812Z,4.20
2017-08-25T20:37:17.287Z,4.30
2017-08-25T20:39:44.758Z,4.67
2017-08-25T20:42:12.254Z,4.03
2017-08-25T20:44:39.730Z,4.60
2017-08-25T20:47:07.456Z,4.67
2017-08-25T20:49:35.718Z,4.40
2017-08-25T20:52:03.189Z,4.23
2017-08-25T20:54:30.645Z,4.47
2017-08-25T20:56:58.120Z,4.43
2017-08-25T20:59:25.620Z,4.30
2017-08-25T21:01:53.092Z,4.73
2017-08-25T21:04:20.593Z,5.13
2017-08-25T21:06:48.068Z,5.15
2017-08-25T21:09:16.765Z,5.20
2017-08-25T21:11:44.234Z,5.00
2017-08-25T21:14:11.767Z,5.60
2017-08-25T21:16:39.247Z,4.97
2017-08-25T21:19:06.751Z,5.70
2017-08-25T21:21:34.212Z,5.00
2017-08-25T21:24:01.685Z,5.33
2017-08-25T21:26:29.181Z,3.05
2017-08-25T21:28:56.637Z,3.10
2017-08-25T21:31:24.120Z,4.13
2017-08-25T21:33:51.588Z,4.87
2017-08-25T21:36:19.078Z,5.22
2017-08-25T21:38:46.569Z,4.97
2017-08-25T21:41:14.084Z,4.68
2017-08-25T21:43:41.542Z,4.40
2017-08-25T21:46:09.032Z,4.40
2017-08-25T21:48:36.526Z,4.28
2017-08-25T21:51:03.989Z,4.60
2017-08-25T21:53:31.464Z,4.27
2017-08-25T21:55:58.938Z,4.30
2017-08-25T21:58:26.500Z,4.30
2017-08-25T22:00:53.985Z,4.80
2017-08-25T22:03:21.505Z,4.45
2017-08-25T22:05:48.987Z,4.25
2017-08-25T22:08:16.486Z,4.97
2017-08-25T22:10:43.941Z,5.00
2017-08-25T22:13:11.511Z,4.67
2017-08-25T22:15:39.079Z,4.97
2017-08-25T22:18:06.547Z,4.83
2017-08-25T22:20:34.027Z,4.67
2017-08-25T22:23:01.488Z,5.13
2017-08-25T22:25:28.992Z,5.00
2017-08-25T22:27:56.504Z,4.90
2017-08-25T22:30:24.009Z,4.97
2017-08-25T22:32:51.489Z,5.03
2017-08-25T22:35:18.992Z,4.37
2017-08-25T22:37:46.467Z,5.23
2017-08-25T22:40:13.965Z,4.87
2017-08-25T22:42:41.466Z,4.97
2017-08-25T22:45:08.942Z,4.75
2017-08-25T22:47:36.433Z,4.93
2017-08-25T22:50:03.917Z,6.17
2017-08-25T22:52:31.417Z,5.18
2017-08-25T22:54:58.898Z,6.00
2017-08-25T22:57:26.387Z,4.73
2017-08-25T22:59:53.840Z,4.70
2017-08-25T23:02:21.339Z,5.07
2017-08-25T23:04:48.880Z,4.17
2017-08-25T23:07:16.392Z,4.90
2017-08-25T23:09:43.921Z,4.83
2017-08-25T23:12:11.429Z,4.57
2017-08-25T23:14:38.929Z,5.23
2017-08-25T23:17:07.122Z,4.37
2017-08-25T23:19:34.662Z,4.73
2017-08-25T23:22:02.138Z,5.23
2017-08-25T23:24:29.625Z,5.10
2017-08-25T23:26:57.089Z,5.17
2017-08-25T23:29:24.579Z,4.73
2017-08-25T23:31:52.025Z,4.57
2017-08-25T23:34:19.518Z,5.10
2017-08-25T23:36:46.968Z,5.37
2017-08-25T23:39:14.460Z,5.40
2017-08-25T23:41:41.993Z,4.90
2017-08-25T23:44:09.494Z,4.55
2017-08-25T23:46:37.004Z,4.87
2017-08-25T23:49:05.239Z,5.12
2017-08-25T23:51:32.766Z,5.40
2017-08-25T23:54:00.245Z,5.80
2017-08-25T23:56:27.743Z,5.30
2017-08-25T23:58:55.226Z,5.63
